Ashton, Arkansas
Current Conditions -  °F | °C
As of 2:53 AM on Thursday 23 Oct 2014 (Local Time) from KGLH Reporting Station
Clear Clear  
Wind Chill: 42°   Ceiling: Unl
Heat Index: 44°   Visibility: 10mi
Dew Point: 42°   Wind: 5mph
Humidity: 93%   Direction: 30°NNE
Pressure: 30.14"   Gusts: NA
Location:  33.3324°N, 91.3183°W
Report Text: KGLH 230753Z AUTO 03004KT 10SM CLR 07/06 A3014 RMK AO2 SLP214 T00670056
Loading
Personal Weather Stations






























Interactive Weather Map
Tropical Storm Tracking
New forecast layout! Learn more

10-Day Weather Forecast

Advertisements
Track Severe Weather on mobile